sensor_id;sensor_type;location;lat;lon;timestamp;P1;durP1;ratioP1;P2;durP2;ratioP2
57105;SDS011;62662;56.788;23.942;2022-09-20T00:01:08;8.10;;;3.53;;
57105;SDS011;62662;56.788;23.942;2022-09-20T00:03:42;9.02;;;3.80;;
57105;SDS011;62662;56.788;23.942;2022-09-20T00:06:11;7.20;;;3.60;;
57105;SDS011;62662;56.788;23.942;2022-09-20T00:08:40;15.38;;;4.05;;
57105;SDS011;62662;56.788;23.942;2022-09-20T00:11:11;9.32;;;3.88;;
57105;SDS011;62662;56.788;23.942;2022-09-20T00:13:41;6.03;;;3.65;;
57105;SDS011;62662;56.788;23.942;2022-09-20T00:16:13;7.15;;;3.70;;
57105;SDS011;62662;56.788;23.942;2022-09-20T00:18:42;6.60;;;3.40;;
57105;SDS011;62662;56.788;23.942;2022-09-20T00:21:16;9.27;;;3.75;;
57105;SDS011;62662;56.788;23.942;2022-09-20T00:23:45;5.90;;;3.22;;
57105;SDS011;62662;56.788;23.942;2022-09-20T00:26:12;4.95;;;3.10;;
57105;SDS011;62662;56.788;23.942;2022-09-20T00:28:40;6.35;;;3.70;;
57105;SDS011;62662;56.788;23.942;2022-09-20T00:31:07;4.45;;;2.90;;
57105;SDS011;62662;56.788;23.942;2022-09-20T00:33:34;5.95;;;3.65;;
57105;SDS011;62662;56.788;23.942;2022-09-20T00:36:19;4.93;;;3.75;;
57105;SDS011;62662;56.788;23.942;2022-09-20T00:38:46;3.75;;;3.25;;
57105;SDS011;62662;56.788;23.942;2022-09-20T00:41:13;8.77;;;3.47;;
57105;SDS011;62662;56.788;23.942;2022-09-20T00:43:45;6.97;;;3.47;;
57105;SDS011;62662;56.788;23.942;2022-09-20T00:46:18;8.55;;;4.10;;
57105;SDS011;62662;56.788;23.942;2022-09-20T00:49:06;4.50;;;3.33;;
57105;SDS011;62662;56.788;23.942;2022-09-20T00:51:42;6.28;;;3.88;;
57105;SDS011;62662;56.788;23.942;2022-09-20T00:54:13;5.35;;;3.08;;
57105;SDS011;62662;56.788;23.942;2022-09-20T00:56:45;5.60;;;2.70;;
57105;SDS011;62662;56.788;23.942;2022-09-20T00:59:14;5.50;;;3.20;;
57105;SDS011;62662;56.788;23.942;2022-09-20T01:01:48;6.45;;;3.03;;
57105;SDS011;62662;56.788;23.942;2022-09-20T01:04:22;3.60;;;3.00;;
57105;SDS011;62662;56.788;23.942;2022-09-20T01:06:52;6.53;;;3.63;;
57105;SDS011;62662;56.788;23.942;2022-09-20T01:09:21;4.20;;;3.30;;
57105;SDS011;62662;56.788;23.942;2022-09-20T01:11:48;6.88;;;3.40;;
57105;SDS011;62662;56.788;23.942;2022-09-20T01:14:18;8.00;;;3.28;;
57105;SDS011;62662;56.788;23.942;2022-09-20T01:16:47;8.45;;;3.50;;
57105;SDS011;62662;56.788;23.942;2022-09-20T01:19:20;5.25;;;3.17;;
57105;SDS011;62662;56.788;23.942;2022-09-20T01:22:04;6.93;;;3.38;;
57105;SDS011;62662;56.788;23.942;2022-09-20T01:24:47;8.15;;;3.15;;
57105;SDS011;62662;56.788;23.942;2022-09-20T01:27:19;4.32;;;3.28;;
57105;SDS011;62662;56.788;23.942;2022-09-20T01:32:22;6.30;;;3.55;;
57105;SDS011;62662;56.788;23.942;2022-09-20T01:34:54;6.10;;;3.17;;
57105;SDS011;62662;56.788;23.942;2022-09-20T01:37:41;3.80;;;2.88;;
57105;SDS011;62662;56.788;23.942;2022-09-20T01:45:57;8.48;;;3.65;;
57105;SDS011;62662;56.788;23.942;2022-09-20T01:48:32;7.57;;;3.65;;
57105;SDS011;62662;56.788;23.942;2022-09-20T01:51:25;7.03;;;3.22;;
57105;SDS011;62662;56.788;23.942;2022-09-20T01:54:29;5.25;;;3.20;;
57105;SDS011;62662;56.788;23.942;2022-09-20T02:24:51;5.78;;;2.95;;
57105;SDS011;62662;56.788;23.942;2022-09-20T02:27:43;11.93;;;3.50;;
57105;SDS011;62662;56.788;23.942;2022-09-20T02:30:26;8.85;;;3.47;;
57105;SDS011;62662;56.788;23.942;2022-09-20T02:46:37;9.57;;;4.20;;
57105;SDS011;62662;56.788;23.942;2022-09-20T03:00:12;11.63;;;4.32;;
57105;SDS011;62662;56.788;23.942;2022-09-20T03:05:24;12.95;;;4.60;;
57105;SDS011;62662;56.788;23.942;2022-09-20T03:08:10;6.28;;;4.13;;
57105;SDS011;62662;56.788;23.942;2022-09-20T03:18:59;8.10;;;4.63;;
57105;SDS011;62662;56.788;23.942;2022-09-20T03:24:07;8.32;;;4.50;;
57105;SDS011;62662;56.788;23.942;2022-09-20T03:46:28;6.82;;;3.83;;
57105;SDS011;62662;56.788;23.942;2022-09-20T04:03:59;13.48;;;4.65;;
57105;SDS011;62662;56.788;23.942;2022-09-20T04:14:46;6.63;;;4.40;;
57105;SDS011;62662;56.788;23.942;2022-09-20T04:17:30;10.30;;;4.95;;
57105;SDS011;62662;56.788;23.942;2022-09-20T04:20:02;12.07;;;6.20;;
57105;SDS011;62662;56.788;23.942;2022-09-20T04:22:38;5.10;;;4.07;;
57105;SDS011;62662;56.788;23.942;2022-09-20T04:25:15;11.95;;;4.50;;
57105;SDS011;62662;56.788;23.942;2022-09-20T04:28:01;8.60;;;4.50;;
57105;SDS011;62662;56.788;23.942;2022-09-20T04:30:34;6.95;;;5.45;;
57105;SDS011;62662;56.788;23.942;2022-09-20T04:33:19;8.23;;;5.13;;
57105;SDS011;62662;56.788;23.942;2022-09-20T04:53:10;7.40;;;4.35;;
57105;SDS011;62662;56.788;23.942;2022-09-20T05:09:35;6.35;;;4.63;;
57105;SDS011;62662;56.788;23.942;2022-09-20T05:12:51;6.85;;;4.40;;
57105;SDS011;62662;56.788;23.942;2022-09-20T05:31:59;4.55;;;3.60;;
57105;SDS011;62662;56.788;23.942;2022-09-20T05:34:45;5.20;;;4.00;;
57105;SDS011;62662;56.788;23.942;2022-09-20T05:40:29;6.05;;;3.72;;
57105;SDS011;62662;56.788;23.942;2022-09-20T05:43:40;5.72;;;3.47;;
57105;SDS011;62662;56.788;23.942;2022-09-20T05:59:59;3.63;;;3.20;;
57105;SDS011;62662;56.788;23.942;2022-09-20T06:09:15;3.20;;;2.90;;
57105;SDS011;62662;56.788;23.942;2022-09-20T06:23:21;4.65;;;3.53;;
57105;SDS011;62662;56.788;23.942;2022-09-20T06:31:08;6.05;;;2.97;;
57105;SDS011;62662;56.788;23.942;2022-09-20T06:41:54;5.95;;;2.83;;
57105;SDS011;62662;56.788;23.942;2022-09-20T06:45:29;2.70;;;2.42;;
57105;SDS011;62662;56.788;23.942;2022-09-20T06:48:00;4.68;;;3.00;;
57105;SDS011;62662;56.788;23.942;2022-09-20T06:51:01;3.70;;;2.88;;
57105;SDS011;62662;56.788;23.942;2022-09-20T06:54:20;4.43;;;2.75;;
57105;SDS011;62662;56.788;23.942;2022-09-20T06:57:16;6.43;;;2.53;;
57105;SDS011;62662;56.788;23.942;2022-09-20T07:00:51;4.05;;;2.47;;
57105;SDS011;62662;56.788;23.942;2022-09-20T07:11:10;2.80;;;2.40;;
57105;SDS011;62662;56.788;23.942;2022-09-20T07:13:52;4.45;;;2.50;;
57105;SDS011;62662;56.788;23.942;2022-09-20T07:16:33;3.75;;;2.50;;
57105;SDS011;62662;56.788;23.942;2022-09-20T07:19:35;3.08;;;2.17;;
57105;SDS011;62662;56.788;23.942;2022-09-20T07:22:17;2.85;;;2.22;;
57105;SDS011;62662;56.788;23.942;2022-09-20T07:25:06;2.58;;;2.10;;
57105;SDS011;62662;56.788;23.942;2022-09-20T07:27:53;2.05;;;1.85;;
57105;SDS011;62662;56.788;23.942;2022-09-20T07:30:32;3.97;;;2.20;;
57105;SDS011;62662;56.788;23.942;2022-09-20T07:33:30;3.60;;;2.10;;
57105;SDS011;62662;56.788;23.942;2022-09-20T07:36:51;2.20;;;1.95;;
57105;SDS011;62662;56.788;23.942;2022-09-20T07:43:25;2.22;;;1.52;;
57105;SDS011;62662;56.788;23.942;2022-09-20T07:46:01;3.30;;;1.95;;
57105;SDS011;62662;56.788;23.942;2022-09-20T07:48:50;3.20;;;1.73;;
57105;SDS011;62662;56.788;23.942;2022-09-20T07:52:04;3.38;;;1.92;;
57105;SDS011;62662;56.788;23.942;2022-09-20T07:54:31;5.15;;;2.60;;
57105;SDS011;62662;56.788;23.942;2022-09-20T07:56:58;5.18;;;2.08;;
57105;SDS011;62662;56.788;23.942;2022-09-20T07:59:41;2.60;;;1.95;;
57105;SDS011;62662;56.788;23.942;2022-09-20T08:02:16;3.08;;;2.00;;
57105;SDS011;62662;56.788;23.942;2022-09-20T08:04:43;4.15;;;2.22;;
57105;SDS011;62662;56.788;23.942;2022-09-20T08:07:14;4.10;;;2.55;;
57105;SDS011;62662;56.788;23.942;2022-09-20T08:09:41;3.25;;;2.10;;
57105;SDS011;62662;56.788;23.942;2022-09-20T08:12:08;3.78;;;1.90;;
57105;SDS011;62662;56.788;23.942;2022-09-20T08:14:56;2.20;;;1.88;;
57105;SDS011;62662;56.788;23.942;2022-09-20T08:17:25;3.00;;;1.67;;
57105;SDS011;62662;56.788;23.942;2022-09-20T08:22:51;6.25;;;1.92;;
57105;SDS011;62662;56.788;23.942;2022-09-20T08:25:58;2.28;;;1.73;;
57105;SDS011;62662;56.788;23.942;2022-09-20T08:28:29;11.05;;;1.85;;
57105;SDS011;62662;56.788;23.942;2022-09-20T08:31:12;2.47;;;1.50;;
57105;SDS011;62662;56.788;23.942;2022-09-20T08:34:02;2.47;;;1.40;;
57105;SDS011;62662;56.788;23.942;2022-09-20T08:36:35;4.28;;;1.48;;
57105;SDS011;62662;56.788;23.942;2022-09-20T08:39:10;3.15;;;1.48;;
57105;SDS011;62662;56.788;23.942;2022-09-20T08:45:11;1.88;;;1.30;;
57105;SDS011;62662;56.788;23.942;2022-09-20T08:48:06;2.75;;;1.70;;
57105;SDS011;62662;56.788;23.942;2022-09-20T08:54:14;7.07;;;1.40;;
57105;SDS011;62662;56.788;23.942;2022-09-20T08:57:19;1.27;;;1.00;;
57105;SDS011;62662;56.788;23.942;2022-09-20T09:00:09;1.33;;;1.15;;
57105;SDS011;62662;56.788;23.942;2022-09-20T09:02:55;1.23;;;1.10;;
57105;SDS011;62662;56.788;23.942;2022-09-20T09:10:56;4.00;;;1.08;;
57105;SDS011;62662;56.788;23.942;2022-09-20T09:22:00;1.38;;;1.00;;
57105;SDS011;62662;56.788;23.942;2022-09-20T09:24:30;3.78;;;1.40;;
57105;SDS011;62662;56.788;23.942;2022-09-20T09:27:12;2.10;;;1.10;;
57105;SDS011;62662;56.788;23.942;2022-09-20T09:30:25;2.80;;;1.40;;
57105;SDS011;62662;56.788;23.942;2022-09-20T09:39:21;3.30;;;1.58;;
57105;SDS011;62662;56.788;23.942;2022-09-20T09:52:55;5.60;;;1.73;;
57105;SDS011;62662;56.788;23.942;2022-09-20T09:55:35;4.15;;;1.60;;
57105;SDS011;62662;56.788;23.942;2022-09-20T10:01:33;1.92;;;1.63;;
57105;SDS011;62662;56.788;23.942;2022-09-20T10:07:25;1.67;;;1.40;;
57105;SDS011;62662;56.788;23.942;2022-09-20T10:15:46;3.65;;;1.90;;
57105;SDS011;62662;56.788;23.942;2022-09-20T10:18:36;2.83;;;2.03;;
57105;SDS011;62662;56.788;23.942;2022-09-20T10:24:52;3.33;;;1.98;;
57105;SDS011;62662;56.788;23.942;2022-09-20T11:03:25;3.05;;;2.38;;
57105;SDS011;62662;56.788;23.942;2022-09-20T11:12:59;2.65;;;2.22;;
57105;SDS011;62662;56.788;23.942;2022-09-20T11:23:02;3.15;;;2.22;;
57105;SDS011;62662;56.788;23.942;2022-09-20T11:26:21;4.80;;;2.70;;
57105;SDS011;62662;56.788;23.942;2022-09-20T11:29:01;5.97;;;2.78;;
57105;SDS011;62662;56.788;23.942;2022-09-20T12:04:46;2.35;;;1.77;;
57105;SDS011;62662;56.788;23.942;2022-09-20T12:11:36;3.50;;;2.35;;
57105;SDS011;62662;56.788;23.942;2022-09-20T12:14:40;2.70;;;2.08;;
57105;SDS011;62662;56.788;23.942;2022-09-20T12:30:23;1.80;;;1.60;;
57105;SDS011;62662;56.788;23.942;2022-09-20T12:39:43;2.40;;;1.70;;
57105;SDS011;62662;56.788;23.942;2022-09-20T12:43:22;4.78;;;1.70;;
57105;SDS011;62662;56.788;23.942;2022-09-20T12:46:16;2.00;;;1.42;;
57105;SDS011;62662;56.788;23.942;2022-09-20T12:49:49;2.80;;;2.10;;
57105;SDS011;62662;56.788;23.942;2022-09-20T12:52:36;2.30;;;2.10;;
57105;SDS011;62662;56.788;23.942;2022-09-20T13:03:26;3.10;;;1.75;;
57105;SDS011;62662;56.788;23.942;2022-09-20T13:11:59;2.40;;;1.92;;
57105;SDS011;62662;56.788;23.942;2022-09-20T13:14:42;5.15;;;2.38;;
57105;SDS011;62662;56.788;23.942;2022-09-20T13:17:28;2.63;;;1.90;;
57105;SDS011;62662;56.788;23.942;2022-09-20T13:20:13;3.53;;;2.22;;
57105;SDS011;62662;56.788;23.942;2022-09-20T13:22:54;2.88;;;2.00;;
57105;SDS011;62662;56.788;23.942;2022-09-20T13:25:34;2.47;;;2.20;;
57105;SDS011;62662;56.788;23.942;2022-09-20T13:28:09;2.40;;;1.58;;
57105;SDS011;62662;56.788;23.942;2022-09-20T13:30:46;3.00;;;1.88;;
57105;SDS011;62662;56.788;23.942;2022-09-20T13:33:22;2.75;;;1.92;;
57105;SDS011;62662;56.788;23.942;2022-09-20T13:35:51;2.15;;;1.65;;
57105;SDS011;62662;56.788;23.942;2022-09-20T13:38:24;3.13;;;1.80;;
57105;SDS011;62662;56.788;23.942;2022-09-20T13:41:00;2.35;;;2.15;;
57105;SDS011;62662;56.788;23.942;2022-09-20T13:43:36;2.70;;;2.35;;
57105;SDS011;62662;56.788;23.942;2022-09-20T13:46:15;3.08;;;2.30;;
57105;SDS011;62662;56.788;23.942;2022-09-20T13:52:10;2.25;;;1.60;;
57105;SDS011;62662;56.788;23.942;2022-09-20T13:54:54;2.15;;;1.90;;
57105;SDS011;62662;56.788;23.942;2022-09-20T13:57:26;2.40;;;1.77;;
57105;SDS011;62662;56.788;23.942;2022-09-20T13:59:55;2.92;;;1.95;;
57105;SDS011;62662;56.788;23.942;2022-09-20T14:02:36;4.22;;;1.80;;
57105;SDS011;62662;56.788;23.942;2022-09-20T14:05:13;2.50;;;1.88;;
57105;SDS011;62662;56.788;23.942;2022-09-20T14:07:43;5.32;;;2.00;;
57105;SDS011;62662;56.788;23.942;2022-09-20T14:12:59;2.17;;;1.98;;
57105;SDS011;62662;56.788;23.942;2022-09-20T14:15:35;2.58;;;2.10;;
57105;SDS011;62662;56.788;23.942;2022-09-20T14:18:27;4.72;;;1.92;;
57105;SDS011;62662;56.788;23.942;2022-09-20T14:21:08;2.60;;;1.67;;
57105;SDS011;62662;56.788;23.942;2022-09-20T14:26:40;2.45;;;2.10;;
57105;SDS011;62662;56.788;23.942;2022-09-20T14:37:30;2.85;;;2.40;;
57105;SDS011;62662;56.788;23.942;2022-09-20T14:40:15;4.25;;;2.03;;
57105;SDS011;62662;56.788;23.942;2022-09-20T14:42:50;2.97;;;1.85;;
57105;SDS011;62662;56.788;23.942;2022-09-20T15:01:35;3.05;;;1.85;;
57105;SDS011;62662;56.788;23.942;2022-09-20T15:04:07;2.83;;;2.25;;
57105;SDS011;62662;56.788;23.942;2022-09-20T15:06:49;2.78;;;2.10;;
57105;SDS011;62662;56.788;23.942;2022-09-20T15:09:18;2.17;;;1.60;;
57105;SDS011;62662;56.788;23.942;2022-09-20T15:17:16;2.70;;;1.63;;
57105;SDS011;62662;56.788;23.942;2022-09-20T15:19:45;1.65;;;1.50;;
57105;SDS011;62662;56.788;23.942;2022-09-20T15:22:14;2.35;;;1.63;;
57105;SDS011;62662;56.788;23.942;2022-09-20T15:24:41;2.80;;;1.48;;
57105;SDS011;62662;56.788;23.942;2022-09-20T15:27:12;3.00;;;1.70;;
57105;SDS011;62662;56.788;23.942;2022-09-20T15:29:40;3.13;;;2.05;;
57105;SDS011;62662;56.788;23.942;2022-09-20T15:32:11;3.45;;;1.92;;
57105;SDS011;62662;56.788;23.942;2022-09-20T15:34:38;3.70;;;1.95;;
57105;SDS011;62662;56.788;23.942;2022-09-20T15:37:05;2.60;;;2.05;;
57105;SDS011;62662;56.788;23.942;2022-09-20T15:39:32;2.92;;;2.00;;
57105;SDS011;62662;56.788;23.942;2022-09-20T15:42:03;2.97;;;2.08;;
57105;SDS011;62662;56.788;23.942;2022-09-20T15:44:31;2.38;;;1.80;;
57105;SDS011;62662;56.788;23.942;2022-09-20T15:46:58;1.65;;;1.50;;
57105;SDS011;62662;56.788;23.942;2022-09-20T15:49:27;3.33;;;2.20;;
57105;SDS011;62662;56.788;23.942;2022-09-20T15:51:56;2.33;;;1.52;;
57105;SDS011;62662;56.788;23.942;2022-09-20T15:54:23;3.65;;;2.20;;
57105;SDS011;62662;56.788;23.942;2022-09-20T15:56:51;3.05;;;2.10;;
57105;SDS011;62662;56.788;23.942;2022-09-20T15:59:19;3.10;;;1.90;;
57105;SDS011;62662;56.788;23.942;2022-09-20T16:01:49;2.50;;;2.13;;
57105;SDS011;62662;56.788;23.942;2022-09-20T16:04:18;4.85;;;2.20;;
57105;SDS011;62662;56.788;23.942;2022-09-20T16:06:48;2.55;;;1.70;;
57105;SDS011;62662;56.788;23.942;2022-09-20T16:09:16;3.97;;;2.05;;
57105;SDS011;62662;56.788;23.942;2022-09-20T16:11:46;4.55;;;2.03;;
57105;SDS011;62662;56.788;23.942;2022-09-20T16:14:14;2.83;;;2.30;;
57105;SDS011;62662;56.788;23.942;2022-09-20T16:16:41;3.50;;;2.42;;
57105;SDS011;62662;56.788;23.942;2022-09-20T16:19:10;3.88;;;2.47;;
57105;SDS011;62662;56.788;23.942;2022-09-20T16:21:46;4.05;;;2.38;;
57105;SDS011;62662;56.788;23.942;2022-09-20T16:24:23;3.05;;;2.55;;
57105;SDS011;62662;56.788;23.942;2022-09-20T16:26:52;3.13;;;2.25;;
57105;SDS011;62662;56.788;23.942;2022-09-20T16:29:19;5.53;;;2.10;;
57105;SDS011;62662;56.788;23.942;2022-09-20T16:31:52;6.28;;;1.77;;
57105;SDS011;62662;56.788;23.942;2022-09-20T16:34:20;2.10;;;1.90;;
57105;SDS011;62662;56.788;23.942;2022-09-20T16:37:01;2.65;;;2.05;;
57105;SDS011;62662;56.788;23.942;2022-09-20T16:39:31;2.70;;;2.20;;
57105;SDS011;62662;56.788;23.942;2022-09-20T16:42:02;2.70;;;2.22;;
57105;SDS011;62662;56.788;23.942;2022-09-20T16:44:32;2.60;;;1.73;;
57105;SDS011;62662;56.788;23.942;2022-09-20T16:47:04;3.33;;;2.25;;
57105;SDS011;62662;56.788;23.942;2022-09-20T16:49:35;2.83;;;2.00;;
57105;SDS011;62662;56.788;23.942;2022-09-20T16:52:04;4.60;;;2.00;;
57105;SDS011;62662;56.788;23.942;2022-09-20T16:54:33;3.75;;;1.90;;
57105;SDS011;62662;56.788;23.942;2022-09-20T16:57:01;3.03;;;2.20;;
57105;SDS011;62662;56.788;23.942;2022-09-20T16:59:29;5.15;;;2.47;;
57105;SDS011;62662;56.788;23.942;2022-09-20T17:01:58;2.70;;;2.30;;
57105;SDS011;62662;56.788;23.942;2022-09-20T17:04:29;6.65;;;4.55;;
57105;SDS011;62662;56.788;23.942;2022-09-20T17:06:59;12.13;;;9.38;;
57105;SDS011;62662;56.788;23.942;2022-09-20T17:09:29;9.75;;;7.45;;
57105;SDS011;62662;56.788;23.942;2022-09-20T17:12:01;4.80;;;4.15;;
57105;SDS011;62662;56.788;23.942;2022-09-20T17:14:35;8.77;;;4.45;;
57105;SDS011;62662;56.788;23.942;2022-09-20T17:17:08;7.30;;;4.10;;
57105;SDS011;62662;56.788;23.942;2022-09-20T17:19:38;5.63;;;3.00;;
57105;SDS011;62662;56.788;23.942;2022-09-20T17:22:06;4.55;;;3.20;;
57105;SDS011;62662;56.788;23.942;2022-09-20T17:24:34;4.32;;;2.88;;
57105;SDS011;62662;56.788;23.942;2022-09-20T17:27:02;6.10;;;3.10;;
57105;SDS011;62662;56.788;23.942;2022-09-20T17:29:35;4.25;;;2.72;;
57105;SDS011;62662;56.788;23.942;2022-09-20T17:32:02;5.00;;;3.03;;
57105;SDS011;62662;56.788;23.942;2022-09-20T17:34:30;4.05;;;2.83;;
57105;SDS011;62662;56.788;23.942;2022-09-20T17:36:58;8.77;;;3.03;;
57105;SDS011;62662;56.788;23.942;2022-09-20T17:39:28;4.25;;;2.78;;
57105;SDS011;62662;56.788;23.942;2022-09-20T17:41:56;6.35;;;2.55;;
57105;SDS011;62662;56.788;23.942;2022-09-20T17:44:24;4.45;;;2.78;;
57105;SDS011;62662;56.788;23.942;2022-09-20T17:46:54;3.33;;;2.40;;
57105;SDS011;62662;56.788;23.942;2022-09-20T17:49:27;7.90;;;2.70;;
57105;SDS011;62662;56.788;23.942;2022-09-20T17:51:57;2.65;;;2.13;;
57105;SDS011;62662;56.788;23.942;2022-09-20T17:54:26;3.53;;;2.30;;
57105;SDS011;62662;56.788;23.942;2022-09-20T17:56:58;3.42;;;2.95;;
57105;SDS011;62662;56.788;23.942;2022-09-20T17:59:25;5.63;;;2.22;;
57105;SDS011;62662;56.788;23.942;2022-09-20T18:01:54;7.70;;;2.72;;
57105;SDS011;62662;56.788;23.942;2022-09-20T18:04:22;2.67;;;2.40;;
57105;SDS011;62662;56.788;23.942;2022-09-20T18:06:53;4.28;;;2.75;;
57105;SDS011;62662;56.788;23.942;2022-09-20T18:09:22;3.30;;;2.22;;
57105;SDS011;62662;56.788;23.942;2022-09-20T18:11:52;3.83;;;2.40;;
57105;SDS011;62662;56.788;23.942;2022-09-20T18:14:22;4.18;;;2.92;;
57105;SDS011;62662;56.788;23.942;2022-09-20T18:16:51;4.95;;;2.88;;
57105;SDS011;62662;56.788;23.942;2022-09-20T18:19:21;6.07;;;2.88;;
57105;SDS011;62662;56.788;23.942;2022-09-20T18:21:48;5.00;;;2.55;;
57105;SDS011;62662;56.788;23.942;2022-09-20T18:24:18;4.57;;;2.38;;
57105;SDS011;62662;56.788;23.942;2022-09-20T18:26:46;7.43;;;2.70;;
57105;SDS011;62662;56.788;23.942;2022-09-20T18:29:14;3.10;;;2.65;;
57105;SDS011;62662;56.788;23.942;2022-09-20T18:31:47;4.80;;;2.50;;
57105;SDS011;62662;56.788;23.942;2022-09-20T18:36:52;6.88;;;2.83;;
57105;SDS011;62662;56.788;23.942;2022-09-20T18:39:24;7.45;;;2.88;;
57105;SDS011;62662;56.788;23.942;2022-09-20T18:41:53;4.00;;;2.92;;
57105;SDS011;62662;56.788;23.942;2022-09-20T18:44:21;5.32;;;2.90;;
57105;SDS011;62662;56.788;23.942;2022-09-20T18:46:49;3.47;;;2.55;;
57105;SDS011;62662;56.788;23.942;2022-09-20T18:49:19;5.47;;;2.80;;
57105;SDS011;62662;56.788;23.942;2022-09-20T18:51:47;3.92;;;2.58;;
57105;SDS011;62662;56.788;23.942;2022-09-20T18:54:15;4.28;;;2.63;;
57105;SDS011;62662;56.788;23.942;2022-09-20T18:56:43;5.80;;;2.97;;
57105;SDS011;62662;56.788;23.942;2022-09-20T19:01:50;3.92;;;2.58;;
57105;SDS011;62662;56.788;23.942;2022-09-20T19:12:44;3.15;;;2.40;;
57105;SDS011;62662;56.788;23.942;2022-09-20T19:26:41;3.60;;;2.35;;
57105;SDS011;62662;56.788;23.942;2022-09-20T19:31:54;3.72;;;2.88;;
57105;SDS011;62662;56.788;23.942;2022-09-20T19:34:27;6.40;;;2.90;;
57105;SDS011;62662;56.788;23.942;2022-09-20T19:53:00;3.75;;;2.60;;
57105;SDS011;62662;56.788;23.942;2022-09-20T19:55:33;4.32;;;2.42;;
57105;SDS011;62662;56.788;23.942;2022-09-20T19:58:01;3.65;;;2.40;;
57105;SDS011;62662;56.788;23.942;2022-09-20T20:00:29;2.35;;;2.13;;
57105;SDS011;62662;56.788;23.942;2022-09-20T20:02:59;6.68;;;2.60;;
57105;SDS011;62662;56.788;23.942;2022-09-20T20:05:26;2.65;;;2.30;;
57105;SDS011;62662;56.788;23.942;2022-09-20T20:16:42;2.65;;;2.17;;
57105;SDS011;62662;56.788;23.942;2022-09-20T20:22:20;2.55;;;2.08;;
57105;SDS011;62662;56.788;23.942;2022-09-20T20:29:54;3.53;;;2.20;;
57105;SDS011;62662;56.788;23.942;2022-09-20T20:32:21;3.03;;;2.72;;
57105;SDS011;62662;56.788;23.942;2022-09-20T20:34:48;4.75;;;2.50;;
57105;SDS011;62662;56.788;23.942;2022-09-20T20:37:15;4.78;;;2.42;;
57105;SDS011;62662;56.788;23.942;2022-09-20T20:39:43;3.47;;;2.22;;
57105;SDS011;62662;56.788;23.942;2022-09-20T20:42:10;2.22;;;1.92;;
57105;SDS011;62662;56.788;23.942;2022-09-20T20:44:38;4.35;;;2.35;;
57105;SDS011;62662;56.788;23.942;2022-09-20T20:47:05;4.35;;;2.33;;
57105;SDS011;62662;56.788;23.942;2022-09-20T20:49:32;2.50;;;2.00;;
57105;SDS011;62662;56.788;23.942;2022-09-20T20:52:01;8.38;;;2.50;;
57105;SDS011;62662;56.788;23.942;2022-09-20T20:54:30;3.17;;;2.22;;
57105;SDS011;62662;56.788;23.942;2022-09-20T20:56:58;3.15;;;2.55;;
57105;SDS011;62662;56.788;23.942;2022-09-20T20:59:25;3.15;;;2.50;;
57105;SDS011;62662;56.788;23.942;2022-09-20T21:01:52;2.78;;;2.40;;
57105;SDS011;62662;56.788;23.942;2022-09-20T21:04:19;3.15;;;2.50;;
57105;SDS011;62662;56.788;23.942;2022-09-20T21:06:47;2.88;;;2.30;;
57105;SDS011;62662;56.788;23.942;2022-09-20T21:09:15;3.92;;;2.53;;
57105;SDS011;62662;56.788;23.942;2022-09-20T21:11:42;3.63;;;2.70;;
57105;SDS011;62662;56.788;23.942;2022-09-20T21:14:10;3.58;;;2.45;;
57105;SDS011;62662;56.788;23.942;2022-09-20T21:16:39;6.72;;;3.05;;
57105;SDS011;62662;56.788;23.942;2022-09-20T21:19:09;3.60;;;2.50;;
57105;SDS011;62662;56.788;23.942;2022-09-20T21:21:40;5.40;;;2.40;;
57105;SDS011;62662;56.788;23.942;2022-09-20T21:24:10;2.65;;;2.38;;
57105;SDS011;62662;56.788;23.942;2022-09-20T21:26:40;3.00;;;2.65;;
57105;SDS011;62662;56.788;23.942;2022-09-20T21:29:09;3.80;;;2.60;;
57105;SDS011;62662;56.788;23.942;2022-09-20T21:31:38;4.63;;;2.60;;
57105;SDS011;62662;56.788;23.942;2022-09-20T21:34:07;7.85;;;3.22;;
57105;SDS011;62662;56.788;23.942;2022-09-20T21:36:35;3.10;;;2.63;;
57105;SDS011;62662;56.788;23.942;2022-09-20T21:39:04;5.13;;;2.90;;
57105;SDS011;62662;56.788;23.942;2022-09-20T21:41:33;6.47;;;4.00;;
57105;SDS011;62662;56.788;23.942;2022-09-20T21:44:02;7.43;;;3.03;;
57105;SDS011;62662;56.788;23.942;2022-09-20T21:46:31;6.60;;;3.20;;
57105;SDS011;62662;56.788;23.942;2022-09-20T21:49:09;5.35;;;3.80;;
57105;SDS011;62662;56.788;23.942;2022-09-20T21:51:49;7.65;;;3.60;;
57105;SDS011;62662;56.788;23.942;2022-09-20T21:54:18;8.30;;;3.42;;
57105;SDS011;62662;56.788;23.942;2022-09-20T21:56:45;6.90;;;3.40;;
57105;SDS011;62662;56.788;23.942;2022-09-20T21:59:14;5.88;;;3.00;;
57105;SDS011;62662;56.788;23.942;2022-09-20T22:01:41;5.60;;;3.70;;
57105;SDS011;62662;56.788;23.942;2022-09-20T22:04:09;6.32;;;5.00;;
57105;SDS011;62662;56.788;23.942;2022-09-20T22:06:43;8.25;;;4.00;;
57105;SDS011;62662;56.788;23.942;2022-09-20T22:09:11;7.30;;;4.35;;
57105;SDS011;62662;56.788;23.942;2022-09-20T22:11:42;9.50;;;4.18;;
57105;SDS011;62662;56.788;23.942;2022-09-20T22:14:11;6.93;;;4.43;;
57105;SDS011;62662;56.788;23.942;2022-09-20T22:16:39;5.18;;;3.70;;
57105;SDS011;62662;56.788;23.942;2022-09-20T22:19:09;5.88;;;3.63;;
57105;SDS011;62662;56.788;23.942;2022-09-20T22:21:42;4.60;;;3.80;;
57105;SDS011;62662;56.788;23.942;2022-09-20T22:24:11;5.47;;;4.05;;
57105;SDS011;62662;56.788;23.942;2022-09-20T22:26:56;7.43;;;3.88;;
57105;SDS011;62662;56.788;23.942;2022-09-20T22:29:24;6.40;;;4.00;;
57105;SDS011;62662;56.788;23.942;2022-09-20T22:31:51;5.10;;;3.45;;
57105;SDS011;62662;56.788;23.942;2022-09-20T22:34:19;5.32;;;4.03;;
57105;SDS011;62662;56.788;23.942;2022-09-20T22:36:47;4.57;;;3.92;;
57105;SDS011;62662;56.788;23.942;2022-09-20T22:39:15;6.43;;;3.65;;
57105;SDS011;62662;56.788;23.942;2022-09-20T22:41:42;4.35;;;3.85;;
57105;SDS011;62662;56.788;23.942;2022-09-20T22:44:10;6.97;;;3.70;;
57105;SDS011;62662;56.788;23.942;2022-09-20T22:46:37;6.45;;;3.53;;
57105;SDS011;62662;56.788;23.942;2022-09-20T22:49:05;6.90;;;4.03;;
57105;SDS011;62662;56.788;23.942;2022-09-20T22:51:34;4.63;;;3.58;;
57105;SDS011;62662;56.788;23.942;2022-09-20T22:54:06;5.68;;;3.17;;
57105;SDS011;62662;56.788;23.942;2022-09-20T22:56:34;5.80;;;4.00;;
57105;SDS011;62662;56.788;23.942;2022-09-20T22:59:03;6.25;;;3.67;;
57105;SDS011;62662;56.788;23.942;2022-09-20T23:01:46;3.92;;;3.53;;
57105;SDS011;62662;56.788;23.942;2022-09-20T23:04:14;9.63;;;4.22;;
57105;SDS011;62662;56.788;23.942;2022-09-20T23:09:13;6.85;;;4.47;;
57105;SDS011;62662;56.788;23.942;2022-09-20T23:11:41;8.07;;;4.95;;
57105;SDS011;62662;56.788;23.942;2022-09-20T23:14:10;7.40;;;5.80;;
57105;SDS011;62662;56.788;23.942;2022-09-20T23:16:39;8.13;;;6.22;;
57105;SDS011;62662;56.788;23.942;2022-09-20T23:19:07;6.70;;;5.75;;
57105;SDS011;62662;56.788;23.942;2022-09-20T23:21:35;7.68;;;6.20;;
57105;SDS011;62662;56.788;23.942;2022-09-20T23:24:04;9.43;;;6.57;;
57105;SDS011;62662;56.788;23.942;2022-09-20T23:26:33;11.10;;;7.22;;
57105;SDS011;62662;56.788;23.942;2022-09-20T23:29:02;13.13;;;7.38;;
57105;SDS011;62662;56.788;23.942;2022-09-20T23:31:31;12.07;;;7.13;;
57105;SDS011;62662;56.788;23.942;2022-09-20T23:34:00;8.18;;;5.97;;
57105;SDS011;62662;56.788;23.942;2022-09-20T23:36:29;8.70;;;6.45;;
57105;SDS011;62662;56.788;23.942;2022-09-20T23:38:57;8.65;;;6.38;;
57105;SDS011;62662;56.788;23.942;2022-09-20T23:41:25;8.30;;;6.40;;
57105;SDS011;62662;56.788;23.942;2022-09-20T23:43:53;11.23;;;6.40;;